sensor_id;sensor_type;location;lat;lon;timestamp;P1;durP1;ratioP1;P2;durP2;ratioP2
46897;SDS011;32646;50.958;6.258;2023-05-10T00:00:28;15.35;;;6.43;;
46897;SDS011;32646;50.958;6.258;2023-05-10T00:02:55;14.98;;;5.78;;
46897;SDS011;32646;50.958;6.258;2023-05-10T00:05:22;15.73;;;6.05;;
46897;SDS011;32646;50.958;6.258;2023-05-10T00:07:48;16.40;;;6.45;;
46897;SDS011;32646;50.958;6.258;2023-05-10T00:10:15;17.02;;;7.72;;
46897;SDS011;32646;50.958;6.258;2023-05-10T00:12:42;17.27;;;6.88;;
46897;SDS011;32646;50.958;6.258;2023-05-10T00:15:08;16.27;;;6.25;;
46897;SDS011;32646;50.958;6.258;2023-05-10T00:17:35;18.13;;;7.25;;
46897;SDS011;32646;50.958;6.258;2023-05-10T00:20:02;15.70;;;6.90;;
46897;SDS011;32646;50.958;6.258;2023-05-10T00:22:28;18.15;;;6.95;;
46897;SDS011;32646;50.958;6.258;2023-05-10T00:24:55;16.50;;;7.15;;
46897;SDS011;32646;50.958;6.258;2023-05-10T00:27:22;18.67;;;6.97;;
46897;SDS011;32646;50.958;6.258;2023-05-10T00:29:48;19.85;;;7.40;;
46897;SDS011;32646;50.958;6.258;2023-05-10T00:32:15;16.42;;;6.50;;
46897;SDS011;32646;50.958;6.258;2023-05-10T00:34:42;20.27;;;8.18;;
46897;SDS011;32646;50.958;6.258;2023-05-10T00:37:08;18.25;;;6.93;;
46897;SDS011;32646;50.958;6.258;2023-05-10T00:39:35;20.42;;;7.57;;
46897;SDS011;32646;50.958;6.258;2023-05-10T00:42:01;22.67;;;8.20;;
46897;SDS011;32646;50.958;6.258;2023-05-10T00:44:28;22.17;;;8.02;;
46897;SDS011;32646;50.958;6.258;2023-05-10T00:46:54;22.42;;;7.95;;
46897;SDS011;32646;50.958;6.258;2023-05-10T00:49:21;23.30;;;9.02;;
46897;SDS011;32646;50.958;6.258;2023-05-10T00:51:48;20.65;;;8.20;;
46897;SDS011;32646;50.958;6.258;2023-05-10T00:54:14;22.10;;;8.10;;
46897;SDS011;32646;50.958;6.258;2023-05-10T00:56:41;23.38;;;8.40;;
46897;SDS011;32646;50.958;6.258;2023-05-10T00:59:08;21.15;;;7.43;;
46897;SDS011;32646;50.958;6.258;2023-05-10T01:01:35;18.98;;;7.28;;
46897;SDS011;32646;50.958;6.258;2023-05-10T01:04:02;18.65;;;7.28;;
46897;SDS011;32646;50.958;6.258;2023-05-10T01:06:29;16.90;;;6.50;;
46897;SDS011;32646;50.958;6.258;2023-05-10T01:08:55;19.10;;;6.95;;
46897;SDS011;32646;50.958;6.258;2023-05-10T01:11:22;17.95;;;7.20;;
46897;SDS011;32646;50.958;6.258;2023-05-10T01:13:50;15.73;;;6.40;;
46897;SDS011;32646;50.958;6.258;2023-05-10T01:16:21;16.42;;;6.93;;
46897;SDS011;32646;50.958;6.258;2023-05-10T01:18:48;18.73;;;7.07;;
46897;SDS011;32646;50.958;6.258;2023-05-10T01:21:25;18.00;;;6.90;;
46897;SDS011;32646;50.958;6.258;2023-05-10T01:24:00;17.00;;;6.35;;
46897;SDS011;32646;50.958;6.258;2023-05-10T01:27:12;16.85;;;7.15;;
46897;SDS011;32646;50.958;6.258;2023-05-10T01:35:25;17.35;;;8.15;;
46897;SDS011;32646;50.958;6.258;2023-05-10T01:38:00;19.05;;;7.95;;
46897;SDS011;32646;50.958;6.258;2023-05-10T01:40:42;21.70;;;8.20;;
46897;SDS011;32646;50.958;6.258;2023-05-10T01:43:19;24.95;;;8.57;;
46897;SDS011;32646;50.958;6.258;2023-05-10T01:48:26;30.33;;;10.57;;
46897;SDS011;32646;50.958;6.258;2023-05-10T01:50:54;21.42;;;8.35;;
46897;SDS011;32646;50.958;6.258;2023-05-10T01:53:22;26.60;;;9.50;;
46897;SDS011;32646;50.958;6.258;2023-05-10T01:55:51;28.85;;;9.13;;
46897;SDS011;32646;50.958;6.258;2023-05-10T01:58:23;23.63;;;9.13;;
46897;SDS011;32646;50.958;6.258;2023-05-10T02:00:53;26.63;;;9.57;;
46897;SDS011;32646;50.958;6.258;2023-05-10T02:03:22;25.08;;;9.73;;
46897;SDS011;32646;50.958;6.258;2023-05-10T02:05:50;28.98;;;9.75;;
46897;SDS011;32646;50.958;6.258;2023-05-10T02:08:19;32.97;;;9.98;;
46897;SDS011;32646;50.958;6.258;2023-05-10T02:10:47;27.48;;;9.88;;
46897;SDS011;32646;50.958;6.258;2023-05-10T02:13:16;30.88;;;10.13;;
46897;SDS011;32646;50.958;6.258;2023-05-10T02:15:44;23.27;;;10.07;;
46897;SDS011;32646;50.958;6.258;2023-05-10T02:18:13;26.17;;;10.00;;
46897;SDS011;32646;50.958;6.258;2023-05-10T02:20:40;29.15;;;9.82;;
46897;SDS011;32646;50.958;6.258;2023-05-10T02:23:09;27.58;;;10.55;;
46897;SDS011;32646;50.958;6.258;2023-05-10T02:25:37;28.30;;;11.27;;
46897;SDS011;32646;50.958;6.258;2023-05-10T02:28:04;32.92;;;11.90;;
46897;SDS011;32646;50.958;6.258;2023-05-10T02:30:33;28.63;;;11.02;;
46897;SDS011;32646;50.958;6.258;2023-05-10T02:33:01;30.77;;;12.48;;
46897;SDS011;32646;50.958;6.258;2023-05-10T02:35:30;28.92;;;12.48;;
46897;SDS011;32646;50.958;6.258;2023-05-10T02:37:57;28.52;;;11.68;;
46897;SDS011;32646;50.958;6.258;2023-05-10T02:40:25;29.92;;;12.25;;
46897;SDS011;32646;50.958;6.258;2023-05-10T02:42:54;28.05;;;12.20;;
46897;SDS011;32646;50.958;6.258;2023-05-10T02:45:23;25.48;;;12.73;;
46897;SDS011;32646;50.958;6.258;2023-05-10T02:47:53;30.23;;;12.73;;
46897;SDS011;32646;50.958;6.258;2023-05-10T02:50:20;31.27;;;12.57;;
46897;SDS011;32646;50.958;6.258;2023-05-10T02:52:50;22.70;;;9.70;;
46897;SDS011;32646;50.958;6.258;2023-05-10T02:55:19;24.55;;;11.32;;
46897;SDS011;32646;50.958;6.258;2023-05-10T02:57:52;27.67;;;11.98;;
46897;SDS011;32646;50.958;6.258;2023-05-10T03:00:24;27.42;;;11.55;;
46897;SDS011;32646;50.958;6.258;2023-05-10T03:02:51;22.05;;;8.57;;
46897;SDS011;32646;50.958;6.258;2023-05-10T03:05:18;17.88;;;8.27;;
46897;SDS011;32646;50.958;6.258;2023-05-10T03:07:45;20.40;;;9.27;;
46897;SDS011;32646;50.958;6.258;2023-05-10T03:10:12;22.95;;;9.98;;
46897;SDS011;32646;50.958;6.258;2023-05-10T03:12:56;19.98;;;9.15;;
46897;SDS011;32646;50.958;6.258;2023-05-10T03:15:47;21.50;;;9.60;;
46897;SDS011;32646;50.958;6.258;2023-05-10T03:21:07;19.15;;;9.07;;
46897;SDS011;32646;50.958;6.258;2023-05-10T03:23:45;20.23;;;8.57;;
46897;SDS011;32646;50.958;6.258;2023-05-10T03:26:20;20.27;;;9.68;;
46897;SDS011;32646;50.958;6.258;2023-05-10T03:31:18;16.08;;;6.97;;
46897;SDS011;32646;50.958;6.258;2023-05-10T03:33:46;19.67;;;8.60;;
46897;SDS011;32646;50.958;6.258;2023-05-10T03:36:13;23.30;;;9.57;;
46897;SDS011;32646;50.958;6.258;2023-05-10T03:38:40;20.90;;;9.18;;
46897;SDS011;32646;50.958;6.258;2023-05-10T03:41:07;22.42;;;8.80;;
46897;SDS011;32646;50.958;6.258;2023-05-10T03:43:33;23.40;;;9.40;;
46897;SDS011;32646;50.958;6.258;2023-05-10T03:46:03;25.02;;;9.02;;
46897;SDS011;32646;50.958;6.258;2023-05-10T03:48:32;22.55;;;8.70;;
46897;SDS011;32646;50.958;6.258;2023-05-10T03:50:59;23.48;;;9.45;;
46897;SDS011;32646;50.958;6.258;2023-05-10T03:53:26;24.02;;;9.45;;
46897;SDS011;32646;50.958;6.258;2023-05-10T03:55:52;26.42;;;9.85;;
46897;SDS011;32646;50.958;6.258;2023-05-10T03:58:19;27.92;;;10.88;;
46897;SDS011;32646;50.958;6.258;2023-05-10T04:00:45;23.17;;;9.13;;
46897;SDS011;32646;50.958;6.258;2023-05-10T04:03:12;25.83;;;10.25;;
46897;SDS011;32646;50.958;6.258;2023-05-10T04:05:39;22.70;;;10.32;;
46897;SDS011;32646;50.958;6.258;2023-05-10T04:08:06;24.27;;;9.60;;
46897;SDS011;32646;50.958;6.258;2023-05-10T04:10:32;24.02;;;9.13;;
46897;SDS011;32646;50.958;6.258;2023-05-10T04:12:59;24.33;;;9.63;;
46897;SDS011;32646;50.958;6.258;2023-05-10T04:15:26;29.90;;;9.32;;
46897;SDS011;32646;50.958;6.258;2023-05-10T04:17:52;30.00;;;9.50;;
46897;SDS011;32646;50.958;6.258;2023-05-10T04:20:19;27.83;;;10.82;;
46897;SDS011;32646;50.958;6.258;2023-05-10T04:22:45;29.90;;;10.38;;
46897;SDS011;32646;50.958;6.258;2023-05-10T04:25:12;25.48;;;10.35;;
46897;SDS011;32646;50.958;6.258;2023-05-10T04:27:38;31.48;;;10.52;;
46897;SDS011;32646;50.958;6.258;2023-05-10T04:30:05;27.58;;;9.90;;
46897;SDS011;32646;50.958;6.258;2023-05-10T04:32:32;26.55;;;9.07;;
46897;SDS011;32646;50.958;6.258;2023-05-10T04:34:59;30.35;;;10.45;;
46897;SDS011;32646;50.958;6.258;2023-05-10T04:37:25;27.25;;;10.80;;
46897;SDS011;32646;50.958;6.258;2023-05-10T04:39:52;24.00;;;9.50;;
46897;SDS011;32646;50.958;6.258;2023-05-10T04:42:18;23.95;;;8.65;;
46897;SDS011;32646;50.958;6.258;2023-05-10T04:44:45;26.98;;;9.57;;
46897;SDS011;32646;50.958;6.258;2023-05-10T04:47:11;22.58;;;9.75;;
46897;SDS011;32646;50.958;6.258;2023-05-10T04:49:38;22.98;;;9.32;;
46897;SDS011;32646;50.958;6.258;2023-05-10T04:52:04;26.02;;;9.25;;
46897;SDS011;32646;50.958;6.258;2023-05-10T04:54:31;26.85;;;9.75;;
46897;SDS011;32646;50.958;6.258;2023-05-10T04:56:57;25.92;;;10.30;;
46897;SDS011;32646;50.958;6.258;2023-05-10T04:59:24;26.08;;;10.45;;
46897;SDS011;32646;50.958;6.258;2023-05-10T05:01:50;23.80;;;9.38;;
46897;SDS011;32646;50.958;6.258;2023-05-10T05:04:17;24.15;;;9.63;;
46897;SDS011;32646;50.958;6.258;2023-05-10T05:06:44;27.98;;;10.60;;
46897;SDS011;32646;50.958;6.258;2023-05-10T05:09:10;26.40;;;9.35;;
46897;SDS011;32646;50.958;6.258;2023-05-10T05:11:37;25.95;;;10.40;;
46897;SDS011;32646;50.958;6.258;2023-05-10T05:14:03;26.70;;;10.18;;
46897;SDS011;32646;50.958;6.258;2023-05-10T05:16:30;28.20;;;10.65;;
46897;SDS011;32646;50.958;6.258;2023-05-10T05:18:57;24.23;;;10.13;;
46897;SDS011;32646;50.958;6.258;2023-05-10T05:21:23;30.67;;;9.93;;
46897;SDS011;32646;50.958;6.258;2023-05-10T05:23:50;25.35;;;10.20;;
46897;SDS011;32646;50.958;6.258;2023-05-10T05:26:16;30.17;;;11.73;;
46897;SDS011;32646;50.958;6.258;2023-05-10T05:28:43;25.02;;;9.93;;
46897;SDS011;32646;50.958;6.258;2023-05-10T05:31:09;26.20;;;10.10;;
46897;SDS011;32646;50.958;6.258;2023-05-10T05:33:36;34.92;;;11.18;;
46897;SDS011;32646;50.958;6.258;2023-05-10T05:36:04;28.30;;;10.63;;
46897;SDS011;32646;50.958;6.258;2023-05-10T05:38:31;31.95;;;11.10;;
46897;SDS011;32646;50.958;6.258;2023-05-10T05:40:58;28.70;;;11.05;;
46897;SDS011;32646;50.958;6.258;2023-05-10T05:43:24;27.88;;;10.00;;
46897;SDS011;32646;50.958;6.258;2023-05-10T05:45:54;29.98;;;9.82;;
46897;SDS011;32646;50.958;6.258;2023-05-10T05:48:21;29.55;;;10.35;;
46897;SDS011;32646;50.958;6.258;2023-05-10T05:50:48;28.35;;;10.13;;
46897;SDS011;32646;50.958;6.258;2023-05-10T05:53:14;29.13;;;10.38;;
46897;SDS011;32646;50.958;6.258;2023-05-10T05:55:50;23.90;;;10.10;;
46897;SDS011;32646;50.958;6.258;2023-05-10T05:58:21;25.70;;;9.73;;
46897;SDS011;32646;50.958;6.258;2023-05-10T06:00:48;24.95;;;10.00;;
46897;SDS011;32646;50.958;6.258;2023-05-10T06:03:14;23.80;;;9.35;;
46897;SDS011;32646;50.958;6.258;2023-05-10T06:05:41;25.27;;;9.25;;
46897;SDS011;32646;50.958;6.258;2023-05-10T06:11:21;28.80;;;10.63;;
46897;SDS011;32646;50.958;6.258;2023-05-10T06:13:48;34.55;;;11.75;;
46897;SDS011;32646;50.958;6.258;2023-05-10T06:16:15;36.72;;;12.30;;
46897;SDS011;32646;50.958;6.258;2023-05-10T06:18:41;32.00;;;11.43;;
46897;SDS011;32646;50.958;6.258;2023-05-10T06:21:08;25.83;;;9.05;;
46897;SDS011;32646;50.958;6.258;2023-05-10T06:23:34;29.55;;;11.10;;
46897;SDS011;32646;50.958;6.258;2023-05-10T06:26:01;32.08;;;10.43;;
46897;SDS011;32646;50.958;6.258;2023-05-10T06:28:27;29.77;;;11.35;;
46897;SDS011;32646;50.958;6.258;2023-05-10T06:30:54;29.13;;;11.05;;
46897;SDS011;32646;50.958;6.258;2023-05-10T06:33:21;35.20;;;11.98;;
46897;SDS011;32646;50.958;6.258;2023-05-10T06:35:47;33.75;;;12.23;;
46897;SDS011;32646;50.958;6.258;2023-05-10T06:38:14;36.40;;;13.13;;
46897;SDS011;32646;50.958;6.258;2023-05-10T06:40:43;30.25;;;11.40;;
46897;SDS011;32646;50.958;6.258;2023-05-10T06:43:10;35.72;;;11.68;;
46897;SDS011;32646;50.958;6.258;2023-05-10T06:45:36;35.33;;;12.93;;
46897;SDS011;32646;50.958;6.258;2023-05-10T06:48:03;34.90;;;10.85;;
46897;SDS011;32646;50.958;6.258;2023-05-10T06:50:29;33.67;;;11.88;;
46897;SDS011;32646;50.958;6.258;2023-05-10T06:52:56;30.70;;;11.57;;
46897;SDS011;32646;50.958;6.258;2023-05-10T06:55:22;32.55;;;11.43;;
46897;SDS011;32646;50.958;6.258;2023-05-10T06:57:49;29.17;;;11.65;;
46897;SDS011;32646;50.958;6.258;2023-05-10T07:00:16;31.00;;;11.32;;
46897;SDS011;32646;50.958;6.258;2023-05-10T07:02:44;28.27;;;11.20;;
46897;SDS011;32646;50.958;6.258;2023-05-10T07:05:10;27.40;;;11.30;;
46897;SDS011;32646;50.958;6.258;2023-05-10T07:07:37;27.20;;;10.18;;
46897;SDS011;32646;50.958;6.258;2023-05-10T07:10:04;22.73;;;9.60;;
46897;SDS011;32646;50.958;6.258;2023-05-10T07:12:31;25.10;;;9.90;;
46897;SDS011;32646;50.958;6.258;2023-05-10T07:14:57;24.73;;;9.38;;
46897;SDS011;32646;50.958;6.258;2023-05-10T07:17:24;18.90;;;8.20;;
46897;SDS011;32646;50.958;6.258;2023-05-10T07:19:51;21.02;;;9.38;;
46897;SDS011;32646;50.958;6.258;2023-05-10T07:22:17;20.13;;;8.57;;
46897;SDS011;32646;50.958;6.258;2023-05-10T07:24:44;20.90;;;9.20;;
46897;SDS011;32646;50.958;6.258;2023-05-10T07:27:11;21.77;;;9.23;;
46897;SDS011;32646;50.958;6.258;2023-05-10T07:29:37;18.05;;;8.90;;
46897;SDS011;32646;50.958;6.258;2023-05-10T07:32:05;19.50;;;8.32;;
46897;SDS011;32646;50.958;6.258;2023-05-10T07:34:32;17.88;;;7.57;;
46897;SDS011;32646;50.958;6.258;2023-05-10T07:36:58;15.73;;;6.15;;
46897;SDS011;32646;50.958;6.258;2023-05-10T07:39:25;15.15;;;6.30;;
46897;SDS011;32646;50.958;6.258;2023-05-10T07:41:54;10.52;;;4.80;;
46897;SDS011;32646;50.958;6.258;2023-05-10T07:44:21;10.88;;;4.85;;
46897;SDS011;32646;50.958;6.258;2023-05-10T07:46:47;10.57;;;4.28;;
46897;SDS011;32646;50.958;6.258;2023-05-10T07:49:14;8.23;;;3.75;;
46897;SDS011;32646;50.958;6.258;2023-05-10T07:51:42;15.65;;;5.68;;
46897;SDS011;32646;50.958;6.258;2023-05-10T07:54:09;17.70;;;6.75;;
46897;SDS011;32646;50.958;6.258;2023-05-10T07:56:35;26.30;;;9.85;;
46897;SDS011;32646;50.958;6.258;2023-05-10T07:59:02;25.90;;;9.63;;
46897;SDS011;32646;50.958;6.258;2023-05-10T08:01:30;28.63;;;10.82;;
46897;SDS011;32646;50.958;6.258;2023-05-10T08:03:57;29.27;;;10.82;;
46897;SDS011;32646;50.958;6.258;2023-05-10T08:06:24;34.35;;;11.32;;
46897;SDS011;32646;50.958;6.258;2023-05-10T08:08:50;32.42;;;11.35;;
46897;SDS011;32646;50.958;6.258;2023-05-10T08:11:17;31.63;;;10.57;;
46897;SDS011;32646;50.958;6.258;2023-05-10T08:13:44;29.85;;;9.95;;
46897;SDS011;32646;50.958;6.258;2023-05-10T08:16:11;36.47;;;11.25;;
46897;SDS011;32646;50.958;6.258;2023-05-10T08:18:38;31.98;;;10.20;;
46897;SDS011;32646;50.958;6.258;2023-05-10T08:21:05;35.10;;;10.40;;
46897;SDS011;32646;50.958;6.258;2023-05-10T08:23:32;32.80;;;11.00;;
46897;SDS011;32646;50.958;6.258;2023-05-10T08:25:59;29.50;;;10.05;;
46897;SDS011;32646;50.958;6.258;2023-05-10T08:28:26;31.20;;;11.35;;
46897;SDS011;32646;50.958;6.258;2023-05-10T08:30:52;35.72;;;12.15;;
46897;SDS011;32646;50.958;6.258;2023-05-10T08:33:19;30.55;;;10.50;;
46897;SDS011;32646;50.958;6.258;2023-05-10T08:35:45;29.88;;;10.38;;
46897;SDS011;32646;50.958;6.258;2023-05-10T08:38:12;26.13;;;10.48;;
46897;SDS011;32646;50.958;6.258;2023-05-10T08:40:40;25.33;;;9.68;;
46897;SDS011;32646;50.958;6.258;2023-05-10T08:43:09;25.55;;;10.18;;
46897;SDS011;32646;50.958;6.258;2023-05-10T08:45:38;23.33;;;10.05;;
46897;SDS011;32646;50.958;6.258;2023-05-10T08:48:06;30.00;;;10.68;;
46897;SDS011;32646;50.958;6.258;2023-05-10T08:50:38;26.83;;;9.50;;
46897;SDS011;32646;50.958;6.258;2023-05-10T08:53:09;26.85;;;9.35;;
46897;SDS011;32646;50.958;6.258;2023-05-10T08:55:36;22.13;;;8.73;;
46897;SDS011;32646;50.958;6.258;2023-05-10T08:58:06;21.27;;;9.00;;
46897;SDS011;32646;50.958;6.258;2023-05-10T09:03:00;18.42;;;7.80;;
46897;SDS011;32646;50.958;6.258;2023-05-10T09:05:28;23.08;;;8.63;;
46897;SDS011;32646;50.958;6.258;2023-05-10T09:07:55;23.88;;;8.35;;
46897;SDS011;32646;50.958;6.258;2023-05-10T09:10:22;22.40;;;8.18;;
46897;SDS011;32646;50.958;6.258;2023-05-10T09:12:51;20.95;;;8.27;;
46897;SDS011;32646;50.958;6.258;2023-05-10T09:15:19;21.48;;;7.35;;
46897;SDS011;32646;50.958;6.258;2023-05-10T09:17:46;20.80;;;8.00;;
46897;SDS011;32646;50.958;6.258;2023-05-10T09:20:15;21.77;;;9.27;;
46897;SDS011;32646;50.958;6.258;2023-05-10T09:22:41;20.50;;;8.07;;
46897;SDS011;32646;50.958;6.258;2023-05-10T09:25:14;21.35;;;8.35;;
46897;SDS011;32646;50.958;6.258;2023-05-10T09:27:46;20.25;;;9.18;;
46897;SDS011;32646;50.958;6.258;2023-05-10T09:30:17;16.50;;;6.30;;
46897;SDS011;32646;50.958;6.258;2023-05-10T09:32:49;14.45;;;6.20;;
46897;SDS011;32646;50.958;6.258;2023-05-10T09:35:20;11.98;;;6.07;;
46897;SDS011;32646;50.958;6.258;2023-05-10T09:37:56;10.60;;;4.70;;
46897;SDS011;32646;50.958;6.258;2023-05-10T09:40:25;10.75;;;5.35;;
46897;SDS011;32646;50.958;6.258;2023-05-10T09:45:31;12.32;;;4.97;;
46897;SDS011;32646;50.958;6.258;2023-05-10T09:48:04;9.40;;;4.32;;
46897;SDS011;32646;50.958;6.258;2023-05-10T09:50:33;11.82;;;4.90;;
46897;SDS011;32646;50.958;6.258;2023-05-10T09:53:00;10.32;;;4.70;;
46897;SDS011;32646;50.958;6.258;2023-05-10T09:55:39;11.52;;;4.80;;
46897;SDS011;32646;50.958;6.258;2023-05-10T09:58:07;10.23;;;4.38;;
46897;SDS011;32646;50.958;6.258;2023-05-10T10:00:37;9.43;;;4.32;;
46897;SDS011;32646;50.958;6.258;2023-05-10T10:03:15;9.45;;;4.10;;
46897;SDS011;32646;50.958;6.258;2023-05-10T10:05:46;8.55;;;4.00;;
46897;SDS011;32646;50.958;6.258;2023-05-10T10:08:15;9.23;;;4.65;;
46897;SDS011;32646;50.958;6.258;2023-05-10T10:10:42;7.72;;;3.83;;
46897;SDS011;32646;50.958;6.258;2023-05-10T10:13:10;10.02;;;5.13;;
46897;SDS011;32646;50.958;6.258;2023-05-10T10:15:37;11.40;;;4.13;;
46897;SDS011;32646;50.958;6.258;2023-05-10T10:18:04;7.57;;;3.13;;
46897;SDS011;32646;50.958;6.258;2023-05-10T10:20:31;12.02;;;4.45;;
46897;SDS011;32646;50.958;6.258;2023-05-10T10:22:58;13.63;;;5.63;;
46897;SDS011;32646;50.958;6.258;2023-05-10T10:25:24;11.70;;;5.25;;
46897;SDS011;32646;50.958;6.258;2023-05-10T10:35:53;7.00;;;3.38;;
46897;SDS011;32646;50.958;6.258;2023-05-10T10:38:21;8.55;;;4.13;;
46897;SDS011;32646;50.958;6.258;2023-05-10T10:40:56;8.85;;;4.15;;
46897;SDS011;32646;50.958;6.258;2023-05-10T10:43:35;7.68;;;3.17;;
46897;SDS011;32646;50.958;6.258;2023-05-10T10:46:11;7.88;;;3.90;;
46897;SDS011;32646;50.958;6.258;2023-05-10T10:48:50;7.22;;;3.50;;
46897;SDS011;32646;50.958;6.258;2023-05-10T10:51:37;7.82;;;3.97;;
46897;SDS011;32646;50.958;6.258;2023-05-10T10:54:10;8.27;;;3.53;;
46897;SDS011;32646;50.958;6.258;2023-05-10T10:56:37;8.18;;;3.60;;
46897;SDS011;32646;50.958;6.258;2023-05-10T10:59:04;9.63;;;3.70;;
46897;SDS011;32646;50.958;6.258;2023-05-10T11:01:34;7.88;;;3.97;;
46897;SDS011;32646;50.958;6.258;2023-05-10T11:06:34;8.75;;;3.92;;
46897;SDS011;32646;50.958;6.258;2023-05-10T11:09:05;9.38;;;4.22;;
46897;SDS011;32646;50.958;6.258;2023-05-10T11:11:48;8.02;;;3.78;;
46897;SDS011;32646;50.958;6.258;2023-05-10T11:14:19;9.25;;;4.43;;
46897;SDS011;32646;50.958;6.258;2023-05-10T11:16:47;8.55;;;3.95;;
46897;SDS011;32646;50.958;6.258;2023-05-10T11:19:14;7.55;;;3.53;;
46897;SDS011;32646;50.958;6.258;2023-05-10T11:21:49;8.52;;;3.83;;
46897;SDS011;32646;50.958;6.258;2023-05-10T11:24:31;9.15;;;4.50;;
46897;SDS011;32646;50.958;6.258;2023-05-10T11:26:59;8.98;;;3.78;;
46897;SDS011;32646;50.958;6.258;2023-05-10T11:29:26;8.57;;;4.43;;
46897;SDS011;32646;50.958;6.258;2023-05-10T11:31:52;6.80;;;2.97;;
46897;SDS011;32646;50.958;6.258;2023-05-10T11:34:23;5.95;;;2.85;;
46897;SDS011;32646;50.958;6.258;2023-05-10T11:36:55;6.82;;;2.97;;
46897;SDS011;32646;50.958;6.258;2023-05-10T11:39:25;8.45;;;2.90;;
46897;SDS011;32646;50.958;6.258;2023-05-10T11:41:54;6.13;;;2.78;;
46897;SDS011;32646;50.958;6.258;2023-05-10T11:44:21;8.45;;;2.47;;
46897;SDS011;32646;50.958;6.258;2023-05-10T11:46:48;6.10;;;2.65;;
46897;SDS011;32646;50.958;6.258;2023-05-10T11:49:15;6.28;;;2.85;;
46897;SDS011;32646;50.958;6.258;2023-05-10T11:51:44;6.22;;;2.67;;
46897;SDS011;32646;50.958;6.258;2023-05-10T11:54:11;6.40;;;2.30;;
46897;SDS011;32646;50.958;6.258;2023-05-10T11:56:39;6.35;;;2.50;;
46897;SDS011;32646;50.958;6.258;2023-05-10T11:59:07;5.50;;;2.67;;
46897;SDS011;32646;50.958;6.258;2023-05-10T12:01:34;5.30;;;2.50;;
46897;SDS011;32646;50.958;6.258;2023-05-10T12:04:02;5.88;;;3.10;;
46897;SDS011;32646;50.958;6.258;2023-05-10T12:06:30;7.03;;;3.10;;
46897;SDS011;32646;50.958;6.258;2023-05-10T12:08:58;6.65;;;3.20;;
46897;SDS011;32646;50.958;6.258;2023-05-10T12:11:25;5.70;;;2.50;;
46897;SDS011;32646;50.958;6.258;2023-05-10T12:13:53;5.72;;;2.80;;
46897;SDS011;32646;50.958;6.258;2023-05-10T12:16:21;6.07;;;2.58;;
46897;SDS011;32646;50.958;6.258;2023-05-10T12:18:52;7.70;;;2.95;;
46897;SDS011;32646;50.958;6.258;2023-05-10T12:21:20;5.20;;;2.45;;
46897;SDS011;32646;50.958;6.258;2023-05-10T12:23:51;6.00;;;2.75;;
46897;SDS011;32646;50.958;6.258;2023-05-10T12:26:22;6.00;;;2.72;;
46897;SDS011;32646;50.958;6.258;2023-05-10T12:28:50;7.35;;;3.38;;
46897;SDS011;32646;50.958;6.258;2023-05-10T12:31:16;6.53;;;2.83;;
46897;SDS011;32646;50.958;6.258;2023-05-10T12:33:43;4.82;;;2.33;;
46897;SDS011;32646;50.958;6.258;2023-05-10T12:36:11;6.93;;;2.90;;
46897;SDS011;32646;50.958;6.258;2023-05-10T12:38:39;8.77;;;2.90;;
46897;SDS011;32646;50.958;6.258;2023-05-10T12:41:07;5.28;;;3.03;;
46897;SDS011;32646;50.958;6.258;2023-05-10T12:43:39;5.35;;;2.80;;
46897;SDS011;32646;50.958;6.258;2023-05-10T12:46:06;5.40;;;2.40;;
46897;SDS011;32646;50.958;6.258;2023-05-10T12:48:35;5.85;;;2.50;;
46897;SDS011;32646;50.958;6.258;2023-05-10T12:51:02;7.00;;;2.70;;
46897;SDS011;32646;50.958;6.258;2023-05-10T12:53:30;6.18;;;2.42;;
46897;SDS011;32646;50.958;6.258;2023-05-10T12:55:57;4.90;;;2.28;;
46897;SDS011;32646;50.958;6.258;2023-05-10T12:58:23;4.53;;;2.00;;
46897;SDS011;32646;50.958;6.258;2023-05-10T13:01:01;5.00;;;2.22;;
46897;SDS011;32646;50.958;6.258;2023-05-10T13:03:29;6.07;;;2.33;;
46897;SDS011;32646;50.958;6.258;2023-05-10T13:05:56;4.63;;;2.15;;
46897;SDS011;32646;50.958;6.258;2023-05-10T13:08:24;5.38;;;2.33;;
46897;SDS011;32646;50.958;6.258;2023-05-10T13:10:50;5.95;;;3.13;;
46897;SDS011;32646;50.958;6.258;2023-05-10T13:13:17;8.05;;;2.90;;
46897;SDS011;32646;50.958;6.258;2023-05-10T13:15:46;8.63;;;2.95;;
46897;SDS011;32646;50.958;6.258;2023-05-10T13:18:12;5.40;;;2.50;;
46897;SDS011;32646;50.958;6.258;2023-05-10T13:20:39;4.18;;;2.03;;
46897;SDS011;32646;50.958;6.258;2023-05-10T13:23:06;4.93;;;2.75;;
46897;SDS011;32646;50.958;6.258;2023-05-10T13:25:32;4.88;;;2.20;;
46897;SDS011;32646;50.958;6.258;2023-05-10T13:27:59;5.80;;;2.28;;
46897;SDS011;32646;50.958;6.258;2023-05-10T13:30:25;4.53;;;2.10;;
46897;SDS011;32646;50.958;6.258;2023-05-10T13:32:52;5.63;;;2.30;;
46897;SDS011;32646;50.958;6.258;2023-05-10T13:35:26;4.53;;;1.65;;
46897;SDS011;32646;50.958;6.258;2023-05-10T13:37:52;4.13;;;1.80;;
46897;SDS011;32646;50.958;6.258;2023-05-10T13:40:19;4.72;;;2.22;;
46897;SDS011;32646;50.958;6.258;2023-05-10T13:42:46;4.35;;;2.03;;
46897;SDS011;32646;50.958;6.258;2023-05-10T13:45:14;3.95;;;1.85;;
46897;SDS011;32646;50.958;6.258;2023-05-10T13:47:41;4.28;;;2.20;;
46897;SDS011;32646;50.958;6.258;2023-05-10T13:50:11;3.70;;;1.73;;
46897;SDS011;32646;50.958;6.258;2023-05-10T13:52:38;4.43;;;1.70;;
46897;SDS011;32646;50.958;6.258;2023-05-10T13:55:04;4.88;;;1.70;;
46897;SDS011;32646;50.958;6.258;2023-05-10T13:57:31;3.38;;;1.50;;
46897;SDS011;32646;50.958;6.258;2023-05-10T13:59:58;3.05;;;1.30;;
46897;SDS011;32646;50.958;6.258;2023-05-10T14:02:24;5.43;;;1.70;;
46897;SDS011;32646;50.958;6.258;2023-05-10T14:04:53;4.13;;;1.70;;
46897;SDS011;32646;50.958;6.258;2023-05-10T14:07:19;4.40;;;1.73;;
46897;SDS011;32646;50.958;6.258;2023-05-10T14:09:46;3.97;;;1.60;;
46897;SDS011;32646;50.958;6.258;2023-05-10T14:12:13;4.57;;;1.50;;
46897;SDS011;32646;50.958;6.258;2023-05-10T14:14:39;6.22;;;2.03;;
46897;SDS011;32646;50.958;6.258;2023-05-10T14:17:08;3.78;;;1.35;;
46897;SDS011;32646;50.958;6.258;2023-05-10T14:19:37;3.13;;;1.30;;
46897;SDS011;32646;50.958;6.258;2023-05-10T14:22:04;4.10;;;1.60;;
46897;SDS011;32646;50.958;6.258;2023-05-10T14:24:30;3.58;;;1.40;;
46897;SDS011;32646;50.958;6.258;2023-05-10T14:26:57;5.15;;;2.20;;
46897;SDS011;32646;50.958;6.258;2023-05-10T14:29:24;5.00;;;2.20;;
46897;SDS011;32646;50.958;6.258;2023-05-10T14:31:50;4.85;;;1.90;;
46897;SDS011;32646;50.958;6.258;2023-05-10T14:34:17;3.17;;;1.40;;
46897;SDS011;32646;50.958;6.258;2023-05-10T14:36:43;4.10;;;1.33;;
46897;SDS011;32646;50.958;6.258;2023-05-10T14:39:10;4.05;;;1.83;;
46897;SDS011;32646;50.958;6.258;2023-05-10T14:41:37;4.63;;;1.73;;
46897;SDS011;32646;50.958;6.258;2023-05-10T14:44:03;7.00;;;3.10;;
46897;SDS011;32646;50.958;6.258;2023-05-10T14:46:30;6.95;;;3.00;;
46897;SDS011;32646;50.958;6.258;2023-05-10T14:48:57;8.82;;;3.25;;
46897;SDS011;32646;50.958;6.258;2023-05-10T14:51:23;4.63;;;2.00;;
46897;SDS011;32646;50.958;6.258;2023-05-10T14:53:50;5.65;;;2.25;;
46897;SDS011;32646;50.958;6.258;2023-05-10T14:56:16;3.90;;;1.70;;
46897;SDS011;32646;50.958;6.258;2023-05-10T14:58:43;3.55;;;1.33;;
46897;SDS011;32646;50.958;6.258;2023-05-10T15:01:09;4.40;;;1.55;;
46897;SDS011;32646;50.958;6.258;2023-05-10T15:03:37;3.70;;;1.20;;
46897;SDS011;32646;50.958;6.258;2023-05-10T15:06:04;3.38;;;1.30;;
46897;SDS011;32646;50.958;6.258;2023-05-10T15:08:31;3.88;;;1.55;;
46897;SDS011;32646;50.958;6.258;2023-05-10T15:10:57;2.70;;;1.10;;
46897;SDS011;32646;50.958;6.258;2023-05-10T15:13:24;3.22;;;1.30;;